createdAt,value
2019-01-31T00:00:56.832Z,98835.48
2019-01-31T00:03:44.406Z,98834.59
2019-01-31T00:06:16.861Z,98830.67
2019-01-31T00:09:04.617Z,98833.27
2019-01-31T00:11:52.206Z,98833.72
2019-01-31T00:14:39.849Z,98837.55
2019-01-31T00:17:21.382Z,98837.55
2019-01-31T00:20:08.707Z,98838.34
2019-01-31T00:22:56.059Z,98834.45
2019-01-31T00:25:34.327Z,98838.84
2019-01-31T00:28:27.930Z,98848.83
2019-01-31T00:31:35.129Z,98840.99
2019-01-31T00:34:19.731Z,98842.28
2019-01-31T00:36:52.268Z,98853.18
2019-01-31T00:39:39.563Z,98852.69
2019-01-31T00:42:14.628Z,98852.59
2019-01-31T00:44:58.840Z,98860.38
2019-01-31T00:47:43.052Z,98854.66
2019-01-31T00:50:33.343Z,98862.42
2019-01-31T00:53:12.923Z,98862.22
2019-01-31T00:55:51.213Z,98857.61
2019-01-31T00:58:32.690Z,98859.47
2019-01-31T01:01:08.167Z,98858.33
2019-01-31T01:03:57.358Z,98860.63
2019-01-31T01:06:32.763Z,98866.47
2019-01-31T01:09:18.453Z,98871.22
2019-01-31T01:12:23.062Z,98877.77
2019-01-31T01:14:58.388Z,98877.44
2019-01-31T01:17:39.734Z,98880.64
2019-01-31T01:20:33.403Z,98873.02
2019-01-31T01:23:14.722Z,98883.61
2019-01-31T01:25:55.419Z,98877.31
2019-01-31T01:28:52.097Z,98885.67
2019-01-31T01:31:36.261Z,98887.53
2019-01-31T01:34:42.139Z,98884.98
2019-01-31T01:37:32.517Z,98882.02
2019-01-31T01:40:26.344Z,98877.30
2019-01-31T01:43:10.412Z,98887.73
2019-01-31T01:45:45.672Z,98881.25
2019-01-31T01:48:18.145Z,98886.45
2019-01-31T01:51:07.228Z,98886.77
2019-01-31T01:54:00.587Z,98894.31
2019-01-31T01:56:51.145Z,98893.48
2019-01-31T01:59:28.826Z,98899.55
2019-01-31T02:02:15.869Z,98895.61
2019-01-31T02:05:04.633Z,98899.00
2019-01-31T02:07:58.265Z,98892.92
2019-01-31T02:10:30.774Z,98897.17
2019-01-31T02:13:31.645Z,98903.09
2019-01-31T02:16:16.184Z,98904.20
2019-01-31T02:18:51.615Z,98907.77
2019-01-31T02:21:29.855Z,98911.94
2019-01-31T02:24:08.006Z,98906.52
2019-01-31T02:26:46.311Z,98902.38
2019-01-31T02:29:31.058Z,98904.77
2019-01-31T02:32:03.535Z,98902.77
2019-01-31T02:34:54.213Z,98906.48
2019-01-31T02:37:32.238Z,98909.34
2019-01-31T02:40:13.472Z,98912.09
2019-01-31T02:42:51.660Z,98908.41
2019-01-31T02:45:32.921Z,98906.97
2019-01-31T02:48:20.494Z,98907.24
2019-01-31T02:50:55.465Z,98906.25
2019-01-31T02:53:42.878Z,98903.07
2019-01-31T02:56:27.070Z,98905.60
2019-01-31T02:58:59.545Z,98908.06
2019-01-31T03:01:40.791Z,98910.19
2019-01-31T03:04:27.834Z,98908.81
2019-01-31T03:07:23.965Z,98909.94
2019-01-31T03:10:14.415Z,98913.70
2019-01-31T03:13:07.971Z,98921.12
2019-01-31T03:15:43.110Z,98916.59
2019-01-31T03:18:15.995Z,98910.02
2019-01-31T03:20:57.263Z,98909.55
2019-01-31T03:23:48.007Z,98909.77
2019-01-31T03:26:23.309Z,98908.77
2019-01-31T03:29:01.640Z,98909.00
2019-01-31T03:31:43.001Z,98912.86
2019-01-31T03:34:48.886Z,98909.81
2019-01-31T03:37:35.747Z,98909.70
2019-01-31T03:40:13.928Z,98908.55
2019-01-31T03:42:58.606Z,98919.72
2019-01-31T03:45:50.674Z,98914.08
2019-01-31T03:48:31.883Z,98921.06
2019-01-31T03:51:10.006Z,98924.44
2019-01-31T03:53:57.788Z,98927.03
2019-01-31T03:56:32.729Z,98925.44
2019-01-31T03:59:08.851Z,98934.05
2019-01-31T04:01:50.340Z,98937.55
2019-01-31T04:04:44.008Z,98944.47
2019-01-31T04:07:13.204Z,98941.49
2019-01-31T04:09:42.554Z,98950.52
2019-01-31T04:12:11.737Z,98945.71
2019-01-31T04:14:41.001Z,98949.46
2019-01-31T04:17:10.185Z,98952.45
2019-01-31T04:19:39.426Z,98952.22
2019-01-31T04:22:08.673Z,98952.05
2019-01-31T04:24:37.963Z,98951.72
2019-01-31T04:27:07.193Z,98954.95
2019-01-31T04:29:36.424Z,98962.44
2019-01-31T04:32:05.660Z,98961.67
2019-01-31T04:34:34.852Z,98966.08
2019-01-31T04:37:04.115Z,98965.30
2019-01-31T04:39:34.274Z,98966.28
2019-01-31T04:42:04.221Z,98962.95
2019-01-31T04:44:33.418Z,98962.70
2019-01-31T04:47:02.654Z,98967.13
2019-01-31T04:49:31.848Z,98962.38
2019-01-31T04:52:01.104Z,98969.39
2019-01-31T04:54:30.377Z,98971.64
2019-01-31T04:57:00.648Z,98965.65
2019-01-31T04:59:29.873Z,98972.61
2019-01-31T05:01:59.118Z,98965.70
2019-01-31T05:04:28.337Z,98970.97
2019-01-31T05:06:57.561Z,98977.98
2019-01-31T05:09:26.786Z,98971.05
2019-01-31T05:11:56.005Z,98968.91
2019-01-31T05:14:25.224Z,98971.52
2019-01-31T05:16:54.556Z,98976.27
2019-01-31T05:19:23.796Z,98975.24
2019-01-31T05:21:52.982Z,98982.98
2019-01-31T05:24:22.237Z,98975.60
2019-01-31T05:26:51.450Z,98975.60
2019-01-31T05:29:20.675Z,98973.77
2019-01-31T05:31:49.921Z,98975.02
2019-01-31T05:34:19.144Z,98977.58
2019-01-31T05:36:49.445Z,98977.96
2019-01-31T05:39:18.646Z,98978.79
2019-01-31T05:41:47.876Z,98982.63
2019-01-31T05:44:17.064Z,98984.16
2019-01-31T05:46:46.294Z,98984.34
2019-01-31T05:49:15.481Z,98992.08
2019-01-31T05:51:44.786Z,98984.58
2019-01-31T05:54:13.929Z,98989.26
2019-01-31T05:56:43.154Z,98977.64
2019-01-31T05:59:12.345Z,98982.03
2019-01-31T06:01:41.650Z,98985.05
2019-01-31T06:04:10.873Z,98984.27
2019-01-31T06:06:40.124Z,98993.05
2019-01-31T06:09:09.481Z,98996.37
2019-01-31T06:11:38.732Z,98994.23
2019-01-31T06:14:07.979Z,99003.09
2019-01-31T06:16:37.173Z,98999.72
2019-01-31T06:19:06.375Z,99004.66
2019-01-31T06:21:35.592Z,99008.75
2019-01-31T06:24:04.789Z,99012.84
2019-01-31T06:26:34.986Z,99016.95
2019-01-31T06:29:04.263Z,99017.53
2019-01-31T06:31:33.458Z,99018.42
2019-01-31T06:34:02.709Z,99023.50
2019-01-31T06:36:31.932Z,99018.27
2019-01-31T06:39:01.244Z,99018.97
2019-01-31T06:41:31.964Z,99019.17
2019-01-31T06:44:01.199Z,99022.02
2019-01-31T06:46:30.433Z,99032.33
2019-01-31T06:48:59.761Z,99037.36
2019-01-31T06:51:28.960Z,99033.78
2019-01-31T06:53:58.211Z,99046.45
2019-01-31T06:56:27.411Z,99053.06
2019-01-31T06:58:56.640Z,99057.31
2019-01-31T07:01:25.984Z,99055.89
2019-01-31T07:03:55.173Z,99060.53
2019-01-31T07:06:24.405Z,99057.69
2019-01-31T07:08:53.653Z,99062.08
2019-01-31T07:11:29.593Z,99065.57
2019-01-31T07:13:53.777Z,99071.72
2019-01-31T07:16:23.015Z,99078.15
2019-01-31T07:18:52.233Z,99078.47
2019-01-31T07:21:21.468Z,99079.20
2019-01-31T07:23:50.671Z,99071.85
2019-01-31T07:26:19.867Z,99087.86
2019-01-31T07:28:49.098Z,99088.45
2019-01-31T07:31:18.354Z,99092.16
2019-01-31T07:33:47.581Z,99093.64
2019-01-31T07:36:16.810Z,99097.25
2019-01-31T07:38:46.007Z,99100.90
2019-01-31T07:41:15.231Z,99099.23
2019-01-31T07:43:46.794Z,99096.71
2019-01-31T07:46:15.339Z,99092.94
2019-01-31T07:48:44.523Z,99094.83
2019-01-31T07:51:13.758Z,99096.33
2019-01-31T07:53:43.003Z,99090.33
2019-01-31T07:56:12.193Z,99097.84
2019-01-31T07:58:41.395Z,99099.14
2019-01-31T08:01:10.613Z,99099.67
2019-01-31T08:03:40.745Z,99095.83
2019-01-31T08:06:10.986Z,99097.69
2019-01-31T08:08:40.215Z,99102.15
2019-01-31T08:11:09.417Z,99097.62
2019-01-31T08:13:38.663Z,99101.87
2019-01-31T08:16:07.928Z,99102.64
2019-01-31T08:18:37.163Z,99101.27
2019-01-31T08:21:06.356Z,99107.14
2019-01-31T08:23:35.596Z,99112.97
2019-01-31T08:26:04.907Z,99111.05
2019-01-31T08:28:34.191Z,99114.45
2019-01-31T08:31:04.133Z,99112.16
2019-01-31T08:33:33.361Z,99115.07
2019-01-31T08:36:02.666Z,99121.91
2019-01-31T08:38:31.911Z,99120.05
2019-01-31T08:41:01.086Z,99117.00
2019-01-31T08:43:30.326Z,99116.89
2019-01-31T08:45:59.522Z,99126.91
2019-01-31T08:48:28.722Z,99128.58
2019-01-31T08:50:57.960Z,99119.39
2019-01-31T08:53:27.154Z,99123.31
2019-01-31T08:55:57.480Z,99125.97
2019-01-31T08:58:26.614Z,99128.66
2019-01-31T09:00:55.838Z,99118.67
2019-01-31T09:03:25.066Z,99127.80
2019-01-31T09:05:54.258Z,99124.33
2019-01-31T09:08:23.530Z,99131.33
2019-01-31T09:10:52.765Z,99136.22
2019-01-31T09:13:22.415Z,99131.94
2019-01-31T09:15:51.598Z,99143.30
2019-01-31T09:18:21.779Z,99138.52
2019-01-31T09:20:54.259Z,99139.98
2019-01-31T09:23:42.013Z,99139.20
2019-01-31T09:26:19.928Z,99145.75
2019-01-31T09:29:09.056Z,99143.69
2019-01-31T09:32:01.057Z,99142.85
2019-01-31T09:34:48.634Z,99150.38
2019-01-31T09:37:40.520Z,99154.42
2019-01-31T09:40:19.013Z,99158.88
2019-01-31T09:42:54.418Z,99160.34
2019-01-31T09:45:41.829Z,99150.39
2019-01-31T09:48:16.916Z,99150.00
2019-01-31T09:51:01.116Z,99154.50
2019-01-31T09:53:42.785Z,99154.63
2019-01-31T09:56:15.237Z,99156.08
2019-01-31T09:58:48.043Z,99159.55
2019-01-31T10:01:29.369Z,99159.20
2019-01-31T10:04:17.080Z,99160.58
2019-01-31T10:06:52.284Z,99165.45
2019-01-31T10:09:30.676Z,99154.58
2019-01-31T10:12:18.314Z,99160.25
2019-01-31T10:14:50.804Z,99152.11
2019-01-31T10:17:38.363Z,99151.67
2019-01-31T10:20:33.805Z,99160.94
2019-01-31T10:23:12.229Z,99155.33
2019-01-31T10:25:53.360Z,99160.14
2019-01-31T10:28:53.972Z,99150.59
2019-01-31T10:31:49.016Z,99154.56
2019-01-31T10:34:36.196Z,99152.03
2019-01-31T10:37:14.670Z,99143.83
2019-01-31T10:39:58.936Z,99147.80
2019-01-31T10:42:34.022Z,99146.09
2019-01-31T10:45:24.710Z,99144.80
2019-01-31T10:48:11.682Z,99144.02
2019-01-31T10:50:44.125Z,99138.48
2019-01-31T10:53:25.401Z,99134.98
2019-01-31T10:56:23.674Z,99136.82
2019-01-31T10:59:14.328Z,99138.65
2019-01-31T11:02:12.584Z,99133.83
2019-01-31T11:05:13.739Z,99128.66
2019-01-31T11:07:55.090Z,99131.34
2019-01-31T11:10:33.523Z,99124.80
2019-01-31T11:13:23.681Z,99128.83
2019-01-31T11:16:04.694Z,99129.27
2019-01-31T11:18:42.840Z,99121.86
2019-01-31T11:21:31.700Z,99121.81
2019-01-31T11:24:20.930Z,99121.80
2019-01-31T11:26:59.110Z,99120.10
2019-01-31T11:29:43.704Z,99120.61
2019-01-31T11:32:31.124Z,99120.21
2019-01-31T11:35:26.152Z,99114.18
2019-01-31T11:38:18.000Z,99112.87
2019-01-31T11:40:53.245Z,99110.75
2019-01-31T11:43:37.558Z,99110.75
2019-01-31T11:46:15.889Z,99109.02
2019-01-31T11:48:51.138Z,99098.94
2019-01-31T11:51:49.510Z,99096.73
2019-01-31T11:54:28.096Z,99099.79
2019-01-31T11:57:09.643Z,99099.80
2019-01-31T11:59:38.941Z,99098.09
2019-01-31T12:02:08.263Z,99097.66
2019-01-31T12:04:37.501Z,99096.33
2019-01-31T12:07:06.697Z,99091.48
2019-01-31T12:09:35.948Z,99086.23
2019-01-31T12:12:05.138Z,99082.34
2019-01-31T12:14:34.387Z,99083.63
2019-01-31T12:17:03.942Z,99080.55
2019-01-31T12:19:33.271Z,99083.17
2019-01-31T12:22:02.459Z,99071.45
2019-01-31T12:24:31.692Z,99074.06
2019-01-31T12:27:00.908Z,99073.16
2019-01-31T12:29:30.185Z,99067.84
2019-01-31T12:31:59.517Z,99068.33
2019-01-31T12:34:28.712Z,99065.70
2019-01-31T12:36:58.016Z,99066.54
2019-01-31T12:39:27.254Z,99067.41
2019-01-31T12:41:56.445Z,99066.59
2019-01-31T12:44:25.808Z,99065.74
2019-01-31T12:46:55.034Z,99070.55
2019-01-31T12:49:24.382Z,99067.92
2019-01-31T12:51:53.642Z,99065.72
2019-01-31T12:54:22.870Z,99066.59
2019-01-31T12:56:52.108Z,99067.47
2019-01-31T12:59:22.406Z,99063.09
2019-01-31T13:01:52.168Z,99070.56
2019-01-31T13:04:21.475Z,99066.62
2019-01-31T13:06:52.235Z,99074.88
2019-01-31T13:09:21.468Z,99064.34
2019-01-31T13:11:51.349Z,99059.60
2019-01-31T13:14:20.612Z,99053.54
2019-01-31T13:16:49.858Z,99052.23
2019-01-31T13:19:19.035Z,99051.34
2019-01-31T13:21:48.266Z,99055.23
2019-01-31T13:24:17.576Z,99049.42
2019-01-31T13:26:46.764Z,99047.69
2019-01-31T13:29:16.002Z,99052.04
2019-01-31T13:31:45.308Z,99049.41
2019-01-31T13:34:14.534Z,99051.13
2019-01-31T13:36:43.727Z,99051.13
2019-01-31T13:39:13.993Z,99048.07
2019-01-31T13:41:43.325Z,99045.83
2019-01-31T13:44:12.535Z,99042.30
2019-01-31T13:46:41.722Z,99041.42
2019-01-31T13:49:10.975Z,99043.13
2019-01-31T13:51:40.145Z,99044.44
2019-01-31T13:54:09.381Z,99049.58
2019-01-31T13:56:45.679Z,99044.30
2019-01-31T13:59:09.558Z,99042.52
2019-01-31T14:01:38.753Z,99047.33
2019-01-31T14:04:07.938Z,99044.62
2019-01-31T14:06:37.176Z,99048.11
2019-01-31T14:09:07.668Z,99041.54
2019-01-31T14:11:36.859Z,99045.48
2019-01-31T14:14:09.260Z,99050.31
2019-01-31T14:16:47.257Z,99047.23
2019-01-31T14:19:07.905Z,99039.73
2019-01-31T14:21:37.140Z,99050.58
2019-01-31T14:24:06.320Z,99043.54
2019-01-31T14:26:35.550Z,99045.66
2019-01-31T14:29:05.600Z,99044.23
2019-01-31T14:31:34.821Z,99034.22
2019-01-31T14:34:04.106Z,99036.36
2019-01-31T14:36:33.360Z,99040.67
2019-01-31T14:39:02.540Z,99042.33
2019-01-31T14:41:33.555Z,99034.34
2019-01-31T14:44:02.905Z,99039.99
2019-01-31T14:46:32.124Z,99040.79
2019-01-31T14:49:02.442Z,99035.65
2019-01-31T14:51:31.793Z,99038.28
2019-01-31T14:54:01.049Z,99037.36
2019-01-31T14:56:30.235Z,99040.73
2019-01-31T14:58:59.530Z,99038.47
2019-01-31T15:01:28.774Z,99041.33
2019-01-31T15:03:58.004Z,99046.40
2019-01-31T15:06:27.232Z,99040.24
2019-01-31T15:08:56.419Z,99045.34
2019-01-31T15:11:25.659Z,99049.94
2019-01-31T15:13:54.845Z,99051.14
2019-01-31T15:16:24.082Z,99049.85
2019-01-31T15:18:53.265Z,99051.80
2019-01-31T15:21:22.495Z,99049.39
2019-01-31T15:23:51.762Z,99052.76
2019-01-31T15:26:21.000Z,99047.86
2019-01-31T15:28:50.186Z,99045.53
2019-01-31T15:31:19.415Z,99049.42
2019-01-31T15:33:48.598Z,99053.27
2019-01-31T15:36:17.828Z,99045.66
2019-01-31T15:38:47.057Z,99050.91
2019-01-31T15:41:16.337Z,99045.95
2019-01-31T15:43:45.556Z,99051.72
2019-01-31T15:46:17.784Z,99042.88
2019-01-31T15:48:45.676Z,99048.31
2019-01-31T15:51:14.909Z,99043.91
2019-01-31T15:53:44.158Z,99052.00
2019-01-31T15:56:13.484Z,99046.67
2019-01-31T15:58:42.642Z,99041.76
2019-01-31T16:01:11.835Z,99037.14
2019-01-31T16:03:41.130Z,99045.12
2019-01-31T16:06:10.311Z,99048.37
2019-01-31T16:08:39.484Z,99049.55
2019-01-31T16:11:08.749Z,99054.95
2019-01-31T16:13:37.921Z,99054.83
2019-01-31T16:16:07.296Z,99054.33
2019-01-31T16:18:37.178Z,99048.95
2019-01-31T16:21:06.412Z,99056.61
2019-01-31T16:23:35.599Z,99052.12
2019-01-31T16:26:04.841Z,99052.98
2019-01-31T16:28:34.055Z,99053.27
2019-01-31T16:31:04.309Z,99057.83
2019-01-31T16:33:33.880Z,99054.23
2019-01-31T16:36:04.542Z,99057.28
2019-01-31T16:38:33.919Z,99054.55
2019-01-31T16:41:04.287Z,99053.48
2019-01-31T16:43:33.476Z,99053.38
2019-01-31T16:46:02.785Z,99048.92
2019-01-31T16:48:31.987Z,99051.08
2019-01-31T16:51:01.224Z,99054.44
2019-01-31T16:53:30.465Z,99046.48
2019-01-31T16:55:59.718Z,99043.34
2019-01-31T16:58:28.948Z,99048.51
2019-01-31T17:00:58.185Z,99048.44
2019-01-31T17:03:27.409Z,99044.53
2019-01-31T17:05:56.598Z,99046.66
2019-01-31T17:08:25.893Z,99046.72
2019-01-31T17:10:55.082Z,99044.80
2019-01-31T17:13:24.322Z,99044.80
2019-01-31T17:15:53.555Z,99035.97
2019-01-31T17:18:22.788Z,99033.19
2019-01-31T17:20:52.143Z,99032.19
2019-01-31T17:23:21.506Z,99033.78
2019-01-31T17:25:50.705Z,99033.67
2019-01-31T17:28:20.115Z,99020.70
2019-01-31T17:30:49.299Z,99027.69
2019-01-31T17:33:18.529Z,99025.80
2019-01-31T17:35:47.784Z,99024.61
2019-01-31T17:38:16.969Z,99024.02
2019-01-31T17:40:47.251Z,99026.51
2019-01-31T17:43:16.485Z,99029.81
2019-01-31T17:45:46.077Z,99031.45
2019-01-31T17:48:16.634Z,99026.54
2019-01-31T17:50:45.786Z,99028.62
2019-01-31T17:53:15.032Z,99025.02
2019-01-31T17:55:45.190Z,99028.72
2019-01-31T17:58:14.423Z,99022.92
2019-01-31T18:00:47.993Z,99020.25
2019-01-31T18:03:17.314Z,99017.90
2019-01-31T18:05:46.586Z,99019.09
2019-01-31T18:08:15.786Z,99021.19
2019-01-31T18:10:44.981Z,99018.07
2019-01-31T18:13:14.232Z,99012.31
2019-01-31T18:15:43.427Z,99011.34
2019-01-31T18:18:13.024Z,99015.20
2019-01-31T18:20:42.271Z,99017.34
2019-01-31T18:23:11.505Z,99013.90
2019-01-31T18:25:40.700Z,99019.58
2019-01-31T18:28:12.408Z,99009.11
2019-01-31T18:30:40.863Z,99019.02
2019-01-31T18:33:10.101Z,99015.77
2019-01-31T18:35:39.306Z,99015.77
2019-01-31T18:38:08.534Z,99010.16
2019-01-31T18:40:37.804Z,99015.39
2019-01-31T18:43:07.042Z,99008.53
2019-01-31T18:45:36.644Z,99013.23
2019-01-31T18:48:06.414Z,99011.53
2019-01-31T18:50:40.518Z,99013.13
2019-01-31T18:53:09.827Z,99005.22
2019-01-31T18:55:39.020Z,99009.05
2019-01-31T18:58:09.312Z,99010.49
2019-01-31T19:00:46.216Z,99007.37
2019-01-31T19:03:15.468Z,99012.05
2019-01-31T19:05:44.865Z,99004.88
2019-01-31T19:08:14.058Z,99010.89
2019-01-31T19:10:43.944Z,99010.45
2019-01-31T19:13:13.992Z,99004.50
2019-01-31T19:15:43.191Z,99010.63
2019-01-31T19:18:12.418Z,99015.59
2019-01-31T19:20:41.613Z,99014.84
2019-01-31T19:23:11.951Z,99009.27
2019-01-31T19:25:41.154Z,99013.79
2019-01-31T19:28:13.193Z,99016.11
2019-01-31T19:30:41.324Z,99014.47
2019-01-31T19:33:10.606Z,99014.30
2019-01-31T19:35:40.105Z,99008.03
2019-01-31T19:38:09.364Z,99010.56
2019-01-31T19:40:40.698Z,99012.11
2019-01-31T19:43:09.965Z,99009.84
2019-01-31T19:45:44.174Z,99007.58
2019-01-31T19:48:13.414Z,99001.77
2019-01-31T19:50:43.499Z,99005.33
2019-01-31T19:53:13.008Z,99009.03
2019-01-31T19:55:42.348Z,99006.56
2019-01-31T19:58:11.597Z,99000.97
2019-01-31T20:00:40.917Z,98999.91
2019-01-31T20:03:10.109Z,99003.02
2019-01-31T20:05:39.333Z,99001.08
2019-01-31T20:08:08.571Z,98998.44
2019-01-31T20:10:37.887Z,98985.44
2019-01-31T20:13:07.075Z,98990.09
2019-01-31T20:15:36.304Z,98983.31
2019-01-31T20:18:05.536Z,98979.55
2019-01-31T20:20:34.721Z,98984.08
2019-01-31T20:23:04.132Z,98983.49
2019-01-31T20:25:33.476Z,98979.45
2019-01-31T20:28:02.670Z,98980.75
2019-01-31T20:30:33.273Z,98975.55
2019-01-31T20:33:02.653Z,98983.77
2019-01-31T20:35:31.984Z,98978.28
2019-01-31T20:38:01.606Z,98978.63
2019-01-31T20:40:34.170Z,98972.09
2019-01-31T20:43:04.770Z,98971.64
2019-01-31T20:45:33.998Z,98976.84
2019-01-31T20:48:03.344Z,98973.12
2019-01-31T20:50:37.829Z,98973.56
2019-01-31T20:53:07.448Z,98971.82
2019-01-31T20:55:36.696Z,98971.58
2019-01-31T20:58:05.951Z,98976.65
2019-01-31T21:00:38.398Z,98966.82
2019-01-31T21:03:08.346Z,98966.92
2019-01-31T21:05:38.719Z,98963.57
2019-01-31T21:08:08.731Z,98970.63
2019-01-31T21:10:37.958Z,98970.69
2019-01-31T21:13:07.714Z,98959.94
2019-01-31T21:15:37.019Z,98965.01
2019-01-31T21:18:06.400Z,98961.72
2019-01-31T21:20:35.636Z,98967.61
2019-01-31T21:23:05.423Z,98955.02
2019-01-31T21:25:34.803Z,98950.19
2019-01-31T21:28:04.305Z,98954.50
2019-01-31T21:30:35.430Z,98945.91
2019-01-31T21:33:05.069Z,98946.91
2019-01-31T21:35:34.530Z,98943.89
2019-01-31T21:38:03.900Z,98940.84
2019-01-31T21:40:34.731Z,98937.29
2019-01-31T21:43:05.019Z,98939.23
2019-01-31T21:45:34.252Z,98940.33
2019-01-31T21:48:03.517Z,98939.34
2019-01-31T21:50:33.030Z,98940.20
2019-01-31T21:53:02.217Z,98931.05
2019-01-31T21:55:32.145Z,98927.16
2019-01-31T21:58:01.334Z,98926.33
2019-01-31T22:00:32.986Z,98923.19
2019-01-31T22:03:02.168Z,98918.39
2019-01-31T22:05:31.483Z,98916.89
2019-01-31T22:08:00.723Z,98913.61
2019-01-31T22:10:30.146Z,98918.23
2019-01-31T22:12:59.345Z,98914.67
2019-01-31T22:15:34.024Z,98911.55
2019-01-31T22:18:03.224Z,98912.20
2019-01-31T22:20:32.523Z,98907.00
2019-01-31T22:23:01.750Z,98909.09
2019-01-31T22:25:30.951Z,98904.44
2019-01-31T22:28:00.338Z,98911.11
2019-01-31T22:30:35.138Z,98911.11
2019-01-31T22:33:05.140Z,98902.45
2019-01-31T22:35:34.328Z,98899.00
2019-01-31T22:38:04.242Z,98900.61
2019-01-31T22:40:33.457Z,98904.34
2019-01-31T22:43:02.648Z,98896.13
2019-01-31T22:45:31.870Z,98897.05
2019-01-31T22:48:01.128Z,98895.47
2019-01-31T22:50:30.346Z,98886.20
2019-01-31T22:52:59.544Z,98892.73
2019-01-31T22:55:28.731Z,98891.67
2019-01-31T22:57:57.962Z,98891.41
2019-01-31T23:00:31.736Z,98887.50
2019-01-31T23:03:02.548Z,98888.93
2019-01-31T23:05:31.782Z,98872.54
2019-01-31T23:08:00.971Z,98872.54
2019-01-31T23:10:30.222Z,98865.05
2019-01-31T23:12:59.433Z,98863.16
2019-01-31T23:15:28.658Z,98853.22
2019-01-31T23:17:57.854Z,98840.36
2019-01-31T23:20:27.084Z,98839.66
2019-01-31T23:22:56.326Z,98835.86
2019-01-31T23:25:25.562Z,98837.13
2019-01-31T23:27:54.813Z,98836.94
2019-01-31T23:30:24.018Z,98838.38
2019-01-31T23:32:53.253Z,98842.19
2019-01-31T23:35:22.497Z,98844.06
2019-01-31T23:37:51.696Z,98842.16
2019-01-31T23:40:20.889Z,98838.63
2019-01-31T23:42:50.117Z,98832.88
2019-01-31T23:45:19.800Z,98827.20
2019-01-31T23:47:49.366Z,98822.79
2019-01-31T23:50:19.656Z,98823.72
2019-01-31T23:52:48.884Z,98811.08
2019-01-31T23:55:18.119Z,98809.63
2019-01-31T23:57:47.310Z,98811.81
